sensor_id;sensor_type;location;lat;lon;timestamp;temperature;humidity
36352;DHT22;22382;44.768;17.206;2022-11-13T00:01:16;10.30;99.90
36352;DHT22;22382;44.768;17.206;2022-11-13T00:03:43;10.20;99.90
36352;DHT22;22382;44.768;17.206;2022-11-13T00:06:11;10.20;99.90
36352;DHT22;22382;44.768;17.206;2022-11-13T00:08:39;10.10;99.90
36352;DHT22;22382;44.768;17.206;2022-11-13T00:11:08;10.10;99.90
36352;DHT22;22382;44.768;17.206;2022-11-13T00:13:35;10.20;99.90
36352;DHT22;22382;44.768;17.206;2022-11-13T00:16:05;10.20;99.90
36352;DHT22;22382;44.768;17.206;2022-11-13T00:18:35;10.20;99.90
36352;DHT22;22382;44.768;17.206;2022-11-13T00:21:22;10.20;99.90
36352;DHT22;22382;44.768;17.206;2022-11-13T00:23:50;10.20;99.90
36352;DHT22;22382;44.768;17.206;2022-11-13T00:26:25;10.30;99.90
36352;DHT22;22382;44.768;17.206;2022-11-13T00:28:55;10.40;99.90
36352;DHT22;22382;44.768;17.206;2022-11-13T00:31:22;10.30;99.90
36352;DHT22;22382;44.768;17.206;2022-11-13T00:33:49;10.20;99.90
36352;DHT22;22382;44.768;17.206;2022-11-13T00:36:36;10.20;99.90
36352;DHT22;22382;44.768;17.206;2022-11-13T00:39:03;10.20;99.90
36352;DHT22;22382;44.768;17.206;2022-11-13T00:41:30;10.10;99.90
36352;DHT22;22382;44.768;17.206;2022-11-13T00:43:57;9.90;99.90
36352;DHT22;22382;44.768;17.206;2022-11-13T00:46:24;9.80;99.90
36352;DHT22;22382;44.768;17.206;2022-11-13T00:48:51;9.80;99.90
36352;DHT22;22382;44.768;17.206;2022-11-13T00:51:18;9.80;99.90
36352;DHT22;22382;44.768;17.206;2022-11-13T00:53:45;9.80;99.90
36352;DHT22;22382;44.768;17.206;2022-11-13T00:56:12;10.00;99.90
36352;DHT22;22382;44.768;17.206;2022-11-13T00:58:39;9.80;99.90
36352;DHT22;22382;44.768;17.206;2022-11-13T01:01:10;9.80;99.90
36352;DHT22;22382;44.768;17.206;2022-11-13T01:03:37;9.70;99.90
36352;DHT22;22382;44.768;17.206;2022-11-13T01:06:16;9.80;99.90
36352;DHT22;22382;44.768;17.206;2022-11-13T01:08:44;9.70;99.90
36352;DHT22;22382;44.768;17.206;2022-11-13T01:11:16;9.70;99.90
36352;DHT22;22382;44.768;17.206;2022-11-13T01:13:46;9.70;99.90
36352;DHT22;22382;44.768;17.206;2022-11-13T01:16:16;9.60;99.90
36352;DHT22;22382;44.768;17.206;2022-11-13T01:18:43;9.60;99.90
36352;DHT22;22382;44.768;17.206;2022-11-13T01:23:39;9.70;99.90
36352;DHT22;22382;44.768;17.206;2022-11-13T01:26:19;9.70;99.90
36352;DHT22;22382;44.768;17.206;2022-11-13T01:28:47;9.70;99.90
36352;DHT22;22382;44.768;17.206;2022-11-13T01:31:16;9.70;99.90
36352;DHT22;22382;44.768;17.206;2022-11-13T01:33:44;9.70;99.90
36352;DHT22;22382;44.768;17.206;2022-11-13T01:36:18;9.70;99.90
36352;DHT22;22382;44.768;17.206;2022-11-13T01:38:45;9.60;99.90
36352;DHT22;22382;44.768;17.206;2022-11-13T01:41:18;9.50;99.90
36352;DHT22;22382;44.768;17.206;2022-11-13T01:43:50;9.50;99.90
36352;DHT22;22382;44.768;17.206;2022-11-13T01:54:18;9.20;99.90
36352;DHT22;22382;44.768;17.206;2022-11-13T01:56:46;9.20;99.90
36352;DHT22;22382;44.768;17.206;2022-11-13T01:59:19;9.20;99.90
36352;DHT22;22382;44.768;17.206;2022-11-13T02:01:47;9.20;99.90
36352;DHT22;22382;44.768;17.206;2022-11-13T02:04:14;9.20;99.90
36352;DHT22;22382;44.768;17.206;2022-11-13T02:09:11;9.20;99.90
36352;DHT22;22382;44.768;17.206;2022-11-13T02:11:39;9.20;99.90
36352;DHT22;22382;44.768;17.206;2022-11-13T02:14:07;9.30;99.90
36352;DHT22;22382;44.768;17.206;2022-11-13T02:16:36;9.20;99.90
36352;DHT22;22382;44.768;17.206;2022-11-13T02:19:08;9.20;99.90
36352;DHT22;22382;44.768;17.206;2022-11-13T02:24:45;9.10;99.90
36352;DHT22;22382;44.768;17.206;2022-11-13T02:27:26;9.00;99.90
36352;DHT22;22382;44.768;17.206;2022-11-13T02:29:55;9.00;99.90
36352;DHT22;22382;44.768;17.206;2022-11-13T02:32:22;9.00;99.90
36352;DHT22;22382;44.768;17.206;2022-11-13T02:34:48;9.10;99.90
36352;DHT22;22382;44.768;17.206;2022-11-13T02:37:15;9.10;99.90
36352;DHT22;22382;44.768;17.206;2022-11-13T02:39:42;9.00;99.90
36352;DHT22;22382;44.768;17.206;2022-11-13T02:42:09;9.10;99.90
36352;DHT22;22382;44.768;17.206;2022-11-13T02:44:36;9.10;99.90
36352;DHT22;22382;44.768;17.206;2022-11-13T02:47:03;9.10;99.90
36352;DHT22;22382;44.768;17.206;2022-11-13T02:49:30;9.10;99.90
36352;DHT22;22382;44.768;17.206;2022-11-13T02:51:57;9.20;99.90
36352;DHT22;22382;44.768;17.206;2022-11-13T02:54:24;9.10;99.90
36352;DHT22;22382;44.768;17.206;2022-11-13T02:56:51;9.10;99.90
36352;DHT22;22382;44.768;17.206;2022-11-13T02:59:18;9.00;99.90
36352;DHT22;22382;44.768;17.206;2022-11-13T03:01:45;9.00;99.90
36352;DHT22;22382;44.768;17.206;2022-11-13T03:04:13;9.00;99.90
36352;DHT22;22382;44.768;17.206;2022-11-13T03:06:40;9.00;99.90
36352;DHT22;22382;44.768;17.206;2022-11-13T03:09:07;9.00;99.90
36352;DHT22;22382;44.768;17.206;2022-11-13T03:11:34;9.00;99.90
36352;DHT22;22382;44.768;17.206;2022-11-13T03:14:01;9.00;99.90
36352;DHT22;22382;44.768;17.206;2022-11-13T03:16:28;9.00;99.90
36352;DHT22;22382;44.768;17.206;2022-11-13T03:18:55;9.00;99.90
36352;DHT22;22382;44.768;17.206;2022-11-13T03:21:22;9.00;99.90
36352;DHT22;22382;44.768;17.206;2022-11-13T03:23:49;8.90;99.90
36352;DHT22;22382;44.768;17.206;2022-11-13T03:26:16;8.90;99.90
36352;DHT22;22382;44.768;17.206;2022-11-13T03:28:43;8.90;99.90
36352;DHT22;22382;44.768;17.206;2022-11-13T03:31:11;8.80;99.90
36352;DHT22;22382;44.768;17.206;2022-11-13T03:33:38;8.80;99.90
36352;DHT22;22382;44.768;17.206;2022-11-13T03:36:05;8.70;99.90
36352;DHT22;22382;44.768;17.206;2022-11-13T03:38:33;8.70;99.90
36352;DHT22;22382;44.768;17.206;2022-11-13T03:41:00;8.50;99.90
36352;DHT22;22382;44.768;17.206;2022-11-13T03:43:27;8.50;99.90
36352;DHT22;22382;44.768;17.206;2022-11-13T03:45:54;8.40;99.90
36352;DHT22;22382;44.768;17.206;2022-11-13T03:48:21;8.30;99.90
36352;DHT22;22382;44.768;17.206;2022-11-13T03:50:51;8.30;99.90
36352;DHT22;22382;44.768;17.206;2022-11-13T03:53:19;8.30;99.90
36352;DHT22;22382;44.768;17.206;2022-11-13T03:55:46;8.20;99.90
36352;DHT22;22382;44.768;17.206;2022-11-13T03:58:14;8.30;99.90
36352;DHT22;22382;44.768;17.206;2022-11-13T04:00:42;8.30;99.90
36352;DHT22;22382;44.768;17.206;2022-11-13T04:03:09;8.40;99.90
36352;DHT22;22382;44.768;17.206;2022-11-13T04:05:37;8.40;99.90
36352;DHT22;22382;44.768;17.206;2022-11-13T04:08:04;8.40;99.90
36352;DHT22;22382;44.768;17.206;2022-11-13T04:10:31;8.50;99.90
36352;DHT22;22382;44.768;17.206;2022-11-13T04:12:58;8.40;99.90
36352;DHT22;22382;44.768;17.206;2022-11-13T04:15:25;8.40;99.90
36352;DHT22;22382;44.768;17.206;2022-11-13T04:17:52;8.40;99.90
36352;DHT22;22382;44.768;17.206;2022-11-13T04:20:19;8.30;99.90
36352;DHT22;22382;44.768;17.206;2022-11-13T04:22:46;8.30;99.90
36352;DHT22;22382;44.768;17.206;2022-11-13T04:25:13;8.30;99.90
36352;DHT22;22382;44.768;17.206;2022-11-13T04:27:40;8.20;99.90
36352;DHT22;22382;44.768;17.206;2022-11-13T04:30:08;8.10;99.90
36352;DHT22;22382;44.768;17.206;2022-11-13T04:32:35;8.00;99.90
36352;DHT22;22382;44.768;17.206;2022-11-13T04:35:03;8.00;99.90
36352;DHT22;22382;44.768;17.206;2022-11-13T04:37:30;8.00;99.90
36352;DHT22;22382;44.768;17.206;2022-11-13T04:39:57;7.90;99.90
36352;DHT22;22382;44.768;17.206;2022-11-13T04:42:24;8.00;99.90
36352;DHT22;22382;44.768;17.206;2022-11-13T04:45:09;8.00;99.90
36352;DHT22;22382;44.768;17.206;2022-11-13T04:47:36;8.10;99.90
36352;DHT22;22382;44.768;17.206;2022-11-13T04:50:03;8.10;99.90
36352;DHT22;22382;44.768;17.206;2022-11-13T04:52:30;8.10;99.90
36352;DHT22;22382;44.768;17.206;2022-11-13T04:54:57;8.00;99.90
36352;DHT22;22382;44.768;17.206;2022-11-13T04:57:24;8.00;99.90
36352;DHT22;22382;44.768;17.206;2022-11-13T04:59:51;8.00;99.90
36352;DHT22;22382;44.768;17.206;2022-11-13T05:02:18;7.90;99.90
36352;DHT22;22382;44.768;17.206;2022-11-13T05:04:45;7.90;99.90
36352;DHT22;22382;44.768;17.206;2022-11-13T05:07:12;7.90;99.90
36352;DHT22;22382;44.768;17.206;2022-11-13T05:09:39;7.90;99.90
36352;DHT22;22382;44.768;17.206;2022-11-13T05:12:07;7.90;99.90
36352;DHT22;22382;44.768;17.206;2022-11-13T05:14:38;7.90;99.90
36352;DHT22;22382;44.768;17.206;2022-11-13T05:17:07;7.90;99.90
36352;DHT22;22382;44.768;17.206;2022-11-13T05:19:36;7.80;99.90
36352;DHT22;22382;44.768;17.206;2022-11-13T05:22:05;7.80;99.90
36352;DHT22;22382;44.768;17.206;2022-11-13T05:24:32;7.80;99.90
36352;DHT22;22382;44.768;17.206;2022-11-13T05:26:59;7.80;99.90
36352;DHT22;22382;44.768;17.206;2022-11-13T05:29:26;7.80;99.90
36352;DHT22;22382;44.768;17.206;2022-11-13T05:31:53;7.70;99.90
36352;DHT22;22382;44.768;17.206;2022-11-13T05:34:20;7.70;99.90
36352;DHT22;22382;44.768;17.206;2022-11-13T05:36:47;7.70;99.90
36352;DHT22;22382;44.768;17.206;2022-11-13T05:39:14;7.80;99.90
36352;DHT22;22382;44.768;17.206;2022-11-13T05:41:41;7.70;99.90
36352;DHT22;22382;44.768;17.206;2022-11-13T05:44:08;7.70;99.90
36352;DHT22;22382;44.768;17.206;2022-11-13T05:46:35;7.70;99.90
36352;DHT22;22382;44.768;17.206;2022-11-13T05:49:08;7.70;99.90
36352;DHT22;22382;44.768;17.206;2022-11-13T05:51:38;7.70;99.90
36352;DHT22;22382;44.768;17.206;2022-11-13T05:54:07;7.70;99.90
36352;DHT22;22382;44.768;17.206;2022-11-13T05:56:35;7.60;99.90
36352;DHT22;22382;44.768;17.206;2022-11-13T05:59:03;7.60;99.90
36352;DHT22;22382;44.768;17.206;2022-11-13T06:01:36;7.60;99.90
36352;DHT22;22382;44.768;17.206;2022-11-13T06:04:04;7.70;99.90
36352;DHT22;22382;44.768;17.206;2022-11-13T06:06:32;7.70;99.90
36352;DHT22;22382;44.768;17.206;2022-11-13T06:09:01;7.70;99.90
36352;DHT22;22382;44.768;17.206;2022-11-13T06:11:30;7.80;99.90
36352;DHT22;22382;44.768;17.206;2022-11-13T06:13:58;7.80;99.90
36352;DHT22;22382;44.768;17.206;2022-11-13T06:16:28;7.80;99.90
36352;DHT22;22382;44.768;17.206;2022-11-13T06:18:59;7.80;99.90
36352;DHT22;22382;44.768;17.206;2022-11-13T06:21:29;7.80;99.90
36352;DHT22;22382;44.768;17.206;2022-11-13T06:23:57;7.80;99.90
36352;DHT22;22382;44.768;17.206;2022-11-13T06:26:31;7.80;99.90
36352;DHT22;22382;44.768;17.206;2022-11-13T06:29:00;7.90;99.90
36352;DHT22;22382;44.768;17.206;2022-11-13T06:31:30;7.90;99.90
36352;DHT22;22382;44.768;17.206;2022-11-13T06:33:58;7.90;99.90
36352;DHT22;22382;44.768;17.206;2022-11-13T06:36:28;7.90;99.90
36352;DHT22;22382;44.768;17.206;2022-11-13T06:38:55;8.00;99.90
36352;DHT22;22382;44.768;17.206;2022-11-13T06:41:25;7.90;99.90
36352;DHT22;22382;44.768;17.206;2022-11-13T06:43:52;8.00;99.90
36352;DHT22;22382;44.768;17.206;2022-11-13T06:46:25;8.00;99.90
36352;DHT22;22382;44.768;17.206;2022-11-13T06:48:52;8.00;99.90
36352;DHT22;22382;44.768;17.206;2022-11-13T06:51:21;8.10;99.90
36352;DHT22;22382;44.768;17.206;2022-11-13T06:53:49;8.10;99.90
36352;DHT22;22382;44.768;17.206;2022-11-13T06:56:19;8.10;99.90
36352;DHT22;22382;44.768;17.206;2022-11-13T06:58:47;8.10;99.90
36352;DHT22;22382;44.768;17.206;2022-11-13T07:01:19;8.10;99.90
36352;DHT22;22382;44.768;17.206;2022-11-13T07:03:48;8.20;99.90
36352;DHT22;22382;44.768;17.206;2022-11-13T07:06:20;8.20;99.90
36352;DHT22;22382;44.768;17.206;2022-11-13T07:08:48;8.20;99.90
36352;DHT22;22382;44.768;17.206;2022-11-13T07:11:18;8.20;99.90
36352;DHT22;22382;44.768;17.206;2022-11-13T07:13:46;8.20;99.90
36352;DHT22;22382;44.768;17.206;2022-11-13T07:16:14;8.20;99.90
36352;DHT22;22382;44.768;17.206;2022-11-13T07:18:48;8.30;99.90
36352;DHT22;22382;44.768;17.206;2022-11-13T07:21:15;8.30;99.90
36352;DHT22;22382;44.768;17.206;2022-11-13T07:23:42;8.30;99.90
36352;DHT22;22382;44.768;17.206;2022-11-13T07:26:10;8.20;99.90
36352;DHT22;22382;44.768;17.206;2022-11-13T07:28:38;8.20;99.90
36352;DHT22;22382;44.768;17.206;2022-11-13T07:31:06;8.30;99.90
36352;DHT22;22382;44.768;17.206;2022-11-13T07:33:33;8.40;99.90
36352;DHT22;22382;44.768;17.206;2022-11-13T07:36:01;8.30;99.90
36352;DHT22;22382;44.768;17.206;2022-11-13T07:38:28;8.40;99.90
36352;DHT22;22382;44.768;17.206;2022-11-13T07:40:57;8.40;99.90
36352;DHT22;22382;44.768;17.206;2022-11-13T07:43:25;8.30;99.90
36352;DHT22;22382;44.768;17.206;2022-11-13T07:45:52;8.40;99.90
36352;DHT22;22382;44.768;17.206;2022-11-13T07:48:22;8.50;99.90
36352;DHT22;22382;44.768;17.206;2022-11-13T07:50:50;8.40;99.90
36352;DHT22;22382;44.768;17.206;2022-11-13T07:53:18;8.40;99.90
36352;DHT22;22382;44.768;17.206;2022-11-13T07:55:46;8.50;99.90
36352;DHT22;22382;44.768;17.206;2022-11-13T07:58:13;8.50;99.90
36352;DHT22;22382;44.768;17.206;2022-11-13T08:00:40;8.60;99.90
36352;DHT22;22382;44.768;17.206;2022-11-13T08:03:13;8.70;99.90
36352;DHT22;22382;44.768;17.206;2022-11-13T08:05:41;8.60;99.90
36352;DHT22;22382;44.768;17.206;2022-11-13T08:08:11;8.50;99.90
36352;DHT22;22382;44.768;17.206;2022-11-13T08:10:38;8.40;99.90
36352;DHT22;22382;44.768;17.206;2022-11-13T08:13:07;8.40;99.90
36352;DHT22;22382;44.768;17.206;2022-11-13T08:15:36;8.40;99.90
36352;DHT22;22382;44.768;17.206;2022-11-13T08:18:03;8.40;99.90
36352;DHT22;22382;44.768;17.206;2022-11-13T08:20:31;8.50;99.90
36352;DHT22;22382;44.768;17.206;2022-11-13T08:23:00;8.60;99.90
36352;DHT22;22382;44.768;17.206;2022-11-13T08:25:29;8.60;99.90
36352;DHT22;22382;44.768;17.206;2022-11-13T08:27:56;8.70;99.90
36352;DHT22;22382;44.768;17.206;2022-11-13T08:30:25;8.70;99.90
36352;DHT22;22382;44.768;17.206;2022-11-13T08:32:52;8.70;99.90
36352;DHT22;22382;44.768;17.206;2022-11-13T08:35:20;8.80;99.90
36352;DHT22;22382;44.768;17.206;2022-11-13T08:38:01;8.80;99.90
36352;DHT22;22382;44.768;17.206;2022-11-13T08:40:29;8.80;99.90
36352;DHT22;22382;44.768;17.206;2022-11-13T08:43:00;8.90;99.90
36352;DHT22;22382;44.768;17.206;2022-11-13T08:45:29;8.90;99.90
36352;DHT22;22382;44.768;17.206;2022-11-13T08:48:03;8.90;99.90
36352;DHT22;22382;44.768;17.206;2022-11-13T08:50:34;8.90;99.90
36352;DHT22;22382;44.768;17.206;2022-11-13T08:53:02;8.90;99.90
36352;DHT22;22382;44.768;17.206;2022-11-13T08:55:29;8.90;99.90
36352;DHT22;22382;44.768;17.206;2022-11-13T08:58:00;8.80;99.90
36352;DHT22;22382;44.768;17.206;2022-11-13T09:00:28;8.80;99.90
36352;DHT22;22382;44.768;17.206;2022-11-13T09:02:57;8.80;99.90
36352;DHT22;22382;44.768;17.206;2022-11-13T09:05:25;8.90;99.90
36352;DHT22;22382;44.768;17.206;2022-11-13T09:07:55;8.90;99.90
36352;DHT22;22382;44.768;17.206;2022-11-13T09:10:23;8.90;99.90
36352;DHT22;22382;44.768;17.206;2022-11-13T09:13:01;8.90;99.90
36352;DHT22;22382;44.768;17.206;2022-11-13T09:15:31;8.90;99.90
36352;DHT22;22382;44.768;17.206;2022-11-13T09:17:59;8.80;99.90
36352;DHT22;22382;44.768;17.206;2022-11-13T09:20:28;8.80;99.90
36352;DHT22;22382;44.768;17.206;2022-11-13T09:23:00;8.80;99.90
36352;DHT22;22382;44.768;17.206;2022-11-13T09:25:29;8.60;99.90
36352;DHT22;22382;44.768;17.206;2022-11-13T09:28:03;8.70;99.90
36352;DHT22;22382;44.768;17.206;2022-11-13T09:30:30;8.70;99.90
36352;DHT22;22382;44.768;17.206;2022-11-13T09:32:59;8.80;99.90
36352;DHT22;22382;44.768;17.206;2022-11-13T09:35:27;8.90;99.90
36352;DHT22;22382;44.768;17.206;2022-11-13T09:40:51;8.80;99.90
36352;DHT22;22382;44.768;17.206;2022-11-13T09:43:42;8.90;99.90
36352;DHT22;22382;44.768;17.206;2022-11-13T09:48:40;8.80;99.90
36352;DHT22;22382;44.768;17.206;2022-11-13T09:51:26;8.80;99.90
36352;DHT22;22382;44.768;17.206;2022-11-13T09:53:54;8.80;99.90
36352;DHT22;22382;44.768;17.206;2022-11-13T09:56:42;8.80;99.90
36352;DHT22;22382;44.768;17.206;2022-11-13T09:59:31;8.80;99.90
36352;DHT22;22382;44.768;17.206;2022-11-13T10:02:40;8.40;99.90
36352;DHT22;22382;44.768;17.206;2022-11-13T10:08:10;8.30;99.90
36352;DHT22;22382;44.768;17.206;2022-11-13T10:10:49;8.30;99.90
36352;DHT22;22382;44.768;17.206;2022-11-13T10:16:33;8.50;99.90
36352;DHT22;22382;44.768;17.206;2022-11-13T10:19:30;8.40;99.90
36352;DHT22;22382;44.768;17.206;2022-11-13T10:22:18;8.40;99.90
36352;DHT22;22382;44.768;17.206;2022-11-13T10:25:26;8.60;99.90
36352;DHT22;22382;44.768;17.206;2022-11-13T10:28:00;8.60;99.90
36352;DHT22;22382;44.768;17.206;2022-11-13T10:30:47;8.70;99.90
36352;DHT22;22382;44.768;17.206;2022-11-13T10:33:19;8.70;99.90
36352;DHT22;22382;44.768;17.206;2022-11-13T10:38:43;8.90;99.90
36352;DHT22;22382;44.768;17.206;2022-11-13T10:41:18;9.00;99.90
36352;DHT22;22382;44.768;17.206;2022-11-13T10:43:50;9.20;99.90
36352;DHT22;22382;44.768;17.206;2022-11-13T10:46:25;9.40;99.90
36352;DHT22;22382;44.768;17.206;2022-11-13T10:48:56;9.60;99.90
36352;DHT22;22382;44.768;17.206;2022-11-13T10:51:28;9.70;99.90
36352;DHT22;22382;44.768;17.206;2022-11-13T10:53:57;9.80;99.90
36352;DHT22;22382;44.768;17.206;2022-11-13T10:56:33;10.10;99.90
36352;DHT22;22382;44.768;17.206;2022-11-13T11:01:30;10.30;99.90
36352;DHT22;22382;44.768;17.206;2022-11-13T11:03:57;10.30;99.90
36352;DHT22;22382;44.768;17.206;2022-11-13T11:06:34;10.30;99.90
36352;DHT22;22382;44.768;17.206;2022-11-13T11:09:27;10.20;99.90
36352;DHT22;22382;44.768;17.206;2022-11-13T11:12:10;10.20;99.90
36352;DHT22;22382;44.768;17.206;2022-11-13T11:17:52;10.10;99.90
36352;DHT22;22382;44.768;17.206;2022-11-13T11:23:32;10.10;99.90
36352;DHT22;22382;44.768;17.206;2022-11-13T11:28:33;10.10;99.90
36352;DHT22;22382;44.768;17.206;2022-11-13T11:31:08;10.00;99.90
36352;DHT22;22382;44.768;17.206;2022-11-13T11:34:27;10.00;99.90
36352;DHT22;22382;44.768;17.206;2022-11-13T11:37:05;10.00;99.90
36352;DHT22;22382;44.768;17.206;2022-11-13T11:39:53;10.00;99.90
36352;DHT22;22382;44.768;17.206;2022-11-13T11:42:38;10.00;99.90
36352;DHT22;22382;44.768;17.206;2022-11-13T11:45:19;9.90;99.90
36352;DHT22;22382;44.768;17.206;2022-11-13T11:47:49;9.80;99.90
36352;DHT22;22382;44.768;17.206;2022-11-13T11:50:28;9.80;99.90
36352;DHT22;22382;44.768;17.206;2022-11-13T11:53:11;9.70;99.90
36352;DHT22;22382;44.768;17.206;2022-11-13T11:55:51;9.70;99.90
36352;DHT22;22382;44.768;17.206;2022-11-13T12:21:05;9.50;99.90
36352;DHT22;22382;44.768;17.206;2022-11-13T12:34:52;9.20;99.90
36352;DHT22;22382;44.768;17.206;2022-11-13T12:37:26;9.30;99.90
36352;DHT22;22382;44.768;17.206;2022-11-13T12:40:04;9.40;99.90
36352;DHT22;22382;44.768;17.206;2022-11-13T12:42:33;9.40;99.90
36352;DHT22;22382;44.768;17.206;2022-11-13T12:47:35;9.60;99.90
36352;DHT22;22382;44.768;17.206;2022-11-13T12:53:05;10.10;99.90
36352;DHT22;22382;44.768;17.206;2022-11-13T12:55:34;10.20;99.90
36352;DHT22;22382;44.768;17.206;2022-11-13T12:58:19;10.30;99.90
36352;DHT22;22382;44.768;17.206;2022-11-13T13:06:52;10.60;99.90
36352;DHT22;22382;44.768;17.206;2022-11-13T13:09:32;10.70;99.90
36352;DHT22;22382;44.768;17.206;2022-11-13T13:12:13;10.60;99.90
36352;DHT22;22382;44.768;17.206;2022-11-13T13:17:29;10.70;99.90
36352;DHT22;22382;44.768;17.206;2022-11-13T13:20:00;10.60;99.90
36352;DHT22;22382;44.768;17.206;2022-11-13T13:22:33;10.60;99.90
36352;DHT22;22382;44.768;17.206;2022-11-13T13:25:03;10.50;99.90
36352;DHT22;22382;44.768;17.206;2022-11-13T13:27:38;10.10;99.90
36352;DHT22;22382;44.768;17.206;2022-11-13T13:30:19;10.20;99.90
36352;DHT22;22382;44.768;17.206;2022-11-13T13:33:04;10.20;99.90
36352;DHT22;22382;44.768;17.206;2022-11-13T13:35:56;10.10;99.90
36352;DHT22;22382;44.768;17.206;2022-11-13T13:38:37;10.10;99.90
36352;DHT22;22382;44.768;17.206;2022-11-13T13:41:25;10.00;99.90
36352;DHT22;22382;44.768;17.206;2022-11-13T13:44:23;9.90;99.90
36352;DHT22;22382;44.768;17.206;2022-11-13T13:46:55;10.00;99.90
36352;DHT22;22382;44.768;17.206;2022-11-13T13:49:24;9.70;99.90
36352;DHT22;22382;44.768;17.206;2022-11-13T13:51:54;9.60;99.90
36352;DHT22;22382;44.768;17.206;2022-11-13T13:54:25;9.70;99.90
36352;DHT22;22382;44.768;17.206;2022-11-13T13:56:55;9.70;99.90
36352;DHT22;22382;44.768;17.206;2022-11-13T13:59:34;9.70;99.90
36352;DHT22;22382;44.768;17.206;2022-11-13T14:02:11;9.80;99.90
36352;DHT22;22382;44.768;17.206;2022-11-13T14:04:44;9.80;99.90
36352;DHT22;22382;44.768;17.206;2022-11-13T14:09:48;10.10;99.90
36352;DHT22;22382;44.768;17.206;2022-11-13T14:12:20;10.20;99.90
36352;DHT22;22382;44.768;17.206;2022-11-13T14:14:47;10.20;99.90
36352;DHT22;22382;44.768;17.206;2022-11-13T14:17:23;10.20;99.90
36352;DHT22;22382;44.768;17.206;2022-11-13T14:19:52;10.20;99.90
36352;DHT22;22382;44.768;17.206;2022-11-13T14:22:20;10.20;99.90
36352;DHT22;22382;44.768;17.206;2022-11-13T14:24:53;10.10;99.90
36352;DHT22;22382;44.768;17.206;2022-11-13T14:27:26;10.20;99.90
36352;DHT22;22382;44.768;17.206;2022-11-13T14:30:02;10.20;99.90
36352;DHT22;22382;44.768;17.206;2022-11-13T14:32:38;10.10;99.90
36352;DHT22;22382;44.768;17.206;2022-11-13T14:35:21;10.10;99.90
36352;DHT22;22382;44.768;17.206;2022-11-13T14:37:50;10.10;99.90
36352;DHT22;22382;44.768;17.206;2022-11-13T14:40:22;10.10;99.90
36352;DHT22;22382;44.768;17.206;2022-11-13T14:42:58;10.20;99.90
36352;DHT22;22382;44.768;17.206;2022-11-13T14:45:29;10.20;99.90
36352;DHT22;22382;44.768;17.206;2022-11-13T14:50:33;10.20;99.90
36352;DHT22;22382;44.768;17.206;2022-11-13T14:53:04;10.20;99.90
36352;DHT22;22382;44.768;17.206;2022-11-13T14:55:36;10.20;99.90
36352;DHT22;22382;44.768;17.206;2022-11-13T14:58:04;10.20;99.90
36352;DHT22;22382;44.768;17.206;2022-11-13T15:00:36;10.10;99.90
36352;DHT22;22382;44.768;17.206;2022-11-13T15:03:05;10.10;99.90
36352;DHT22;22382;44.768;17.206;2022-11-13T15:05:33;10.10;99.90
36352;DHT22;22382;44.768;17.206;2022-11-13T15:07:59;10.00;99.90
36352;DHT22;22382;44.768;17.206;2022-11-13T15:10:28;10.00;99.90
36352;DHT22;22382;44.768;17.206;2022-11-13T15:12:55;9.90;99.90
36352;DHT22;22382;44.768;17.206;2022-11-13T15:15:29;9.90;99.90
36352;DHT22;22382;44.768;17.206;2022-11-13T15:17:56;9.90;99.90
36352;DHT22;22382;44.768;17.206;2022-11-13T15:20:26;9.90;99.90
36352;DHT22;22382;44.768;17.206;2022-11-13T15:22:56;9.80;99.90
36352;DHT22;22382;44.768;17.206;2022-11-13T15:25:25;9.80;99.90
36352;DHT22;22382;44.768;17.206;2022-11-13T15:27:52;9.80;99.90
36352;DHT22;22382;44.768;17.206;2022-11-13T15:30:19;9.70;99.90
36352;DHT22;22382;44.768;17.206;2022-11-13T15:32:46;9.70;99.90
36352;DHT22;22382;44.768;17.206;2022-11-13T15:35:19;9.80;99.90
36352;DHT22;22382;44.768;17.206;2022-11-13T15:37:46;9.80;99.90
36352;DHT22;22382;44.768;17.206;2022-11-13T15:40:14;9.80;99.90
36352;DHT22;22382;44.768;17.206;2022-11-13T15:42:42;9.70;99.90
36352;DHT22;22382;44.768;17.206;2022-11-13T15:45:14;9.70;99.90
36352;DHT22;22382;44.768;17.206;2022-11-13T15:47:41;9.70;99.90
36352;DHT22;22382;44.768;17.206;2022-11-13T15:50:08;9.70;99.90
36352;DHT22;22382;44.768;17.206;2022-11-13T15:52:42;9.60;99.90
36352;DHT22;22382;44.768;17.206;2022-11-13T15:57:52;9.60;99.90
36352;DHT22;22382;44.768;17.206;2022-11-13T16:00:25;9.70;99.90
36352;DHT22;22382;44.768;17.206;2022-11-13T16:02:53;9.70;99.90
36352;DHT22;22382;44.768;17.206;2022-11-13T16:05:26;9.70;99.90
36352;DHT22;22382;44.768;17.206;2022-11-13T16:07:55;9.80;99.90
36352;DHT22;22382;44.768;17.206;2022-11-13T16:10:23;9.70;99.90
36352;DHT22;22382;44.768;17.206;2022-11-13T16:12:51;9.70;99.90
36352;DHT22;22382;44.768;17.206;2022-11-13T16:15:18;9.70;99.90
36352;DHT22;22382;44.768;17.206;2022-11-13T16:17:48;9.70;99.90
36352;DHT22;22382;44.768;17.206;2022-11-13T16:20:16;9.70;99.90
36352;DHT22;22382;44.768;17.206;2022-11-13T16:22:44;9.60;99.90
36352;DHT22;22382;44.768;17.206;2022-11-13T16:25:16;9.60;99.90
36352;DHT22;22382;44.768;17.206;2022-11-13T16:27:44;9.60;99.90
36352;DHT22;22382;44.768;17.206;2022-11-13T16:30:19;9.60;99.90
36352;DHT22;22382;44.768;17.206;2022-11-13T16:32:47;9.60;99.90
36352;DHT22;22382;44.768;17.206;2022-11-13T16:35:16;9.60;99.90
36352;DHT22;22382;44.768;17.206;2022-11-13T16:37:43;9.60;99.90
36352;DHT22;22382;44.768;17.206;2022-11-13T16:40:29;9.60;99.90
36352;DHT22;22382;44.768;17.206;2022-11-13T16:42:56;9.60;99.90
36352;DHT22;22382;44.768;17.206;2022-11-13T16:45:24;9.60;99.90
36352;DHT22;22382;44.768;17.206;2022-11-13T16:47:50;9.60;99.90
36352;DHT22;22382;44.768;17.206;2022-11-13T16:50:20;9.60;99.90
36352;DHT22;22382;44.768;17.206;2022-11-13T16:52:50;9.60;99.90
36352;DHT22;22382;44.768;17.206;2022-11-13T16:55:17;9.50;99.90
36352;DHT22;22382;44.768;17.206;2022-11-13T16:57:44;9.50;99.90
36352;DHT22;22382;44.768;17.206;2022-11-13T17:00:15;9.50;99.90
36352;DHT22;22382;44.768;17.206;2022-11-13T17:02:43;9.40;99.90
36352;DHT22;22382;44.768;17.206;2022-11-13T17:05:15;9.30;99.90
36352;DHT22;22382;44.768;17.206;2022-11-13T17:07:44;9.30;99.90
36352;DHT22;22382;44.768;17.206;2022-11-13T17:10:13;9.30;99.90
36352;DHT22;22382;44.768;17.206;2022-11-13T17:12:59;9.40;99.90
36352;DHT22;22382;44.768;17.206;2022-11-13T17:15:26;9.40;99.90
36352;DHT22;22382;44.768;17.206;2022-11-13T17:17:56;9.50;99.90
36352;DHT22;22382;44.768;17.206;2022-11-13T17:20:24;9.40;99.90
36352;DHT22;22382;44.768;17.206;2022-11-13T17:22:51;9.50;99.90
36352;DHT22;22382;44.768;17.206;2022-11-13T17:25:18;9.50;99.90
36352;DHT22;22382;44.768;17.206;2022-11-13T17:27:46;9.50;99.90